sensor_id;sensor_type;location;lat;lon;timestamp;pressure;altitude;pressure_sealevel;temperature;humidity
62031;BME280;62035;52.094;5.112;2022-08-11T00:01:08;102384.16;;;21.42;100.00
62031;BME280;62035;52.094;5.112;2022-08-11T00:03:42;102385.47;;;21.46;100.00
62031;BME280;62035;52.094;5.112;2022-08-11T00:06:13;102385.31;;;21.62;100.00
62031;BME280;62035;52.094;5.112;2022-08-11T00:08:50;102381.09;;;21.60;100.00
62031;BME280;62035;52.094;5.112;2022-08-11T00:11:18;102381.47;;;21.42;100.00
62031;BME280;62035;52.094;5.112;2022-08-11T00:13:47;102384.16;;;21.42;100.00
62031;BME280;62035;52.094;5.112;2022-08-11T00:16:16;102387.47;;;21.29;100.00
62031;BME280;62035;52.094;5.112;2022-08-11T00:18:46;102379.66;;;21.35;100.00
62031;BME280;62035;52.094;5.112;2022-08-11T00:21:15;102385.44;;;21.32;100.00
62031;BME280;62035;52.094;5.112;2022-08-11T00:23:51;102382.53;;;21.56;100.00
62031;BME280;62035;52.094;5.112;2022-08-11T00:26:21;102385.31;;;21.48;100.00
62031;BME280;62035;52.094;5.112;2022-08-11T00:28:50;102397.28;;;21.30;100.00
62031;BME280;62035;52.094;5.112;2022-08-11T00:31:23;102390.78;;;21.17;100.00
62031;BME280;62035;52.094;5.112;2022-08-11T00:33:53;102388.63;;;21.12;100.00
62031;BME280;62035;52.094;5.112;2022-08-11T00:36:26;102386.94;;;21.11;100.00
62031;BME280;62035;52.094;5.112;2022-08-11T00:39:05;102387.19;;;21.02;100.00
62031;BME280;62035;52.094;5.112;2022-08-11T00:41:38;102388.91;;;20.94;100.00
62031;BME280;62035;52.094;5.112;2022-08-11T00:44:18;102386.69;;;20.98;100.00
62031;BME280;62035;52.094;5.112;2022-08-11T00:46:56;102405.22;;;21.09;100.00
62031;BME280;62035;52.094;5.112;2022-08-11T00:49:37;102393.97;;;20.97;100.00
62031;BME280;62035;52.094;5.112;2022-08-11T00:52:12;102395.47;;;21.00;100.00
62031;BME280;62035;52.094;5.112;2022-08-11T00:54:59;102392.34;;;21.11;100.00
62031;BME280;62035;52.094;5.112;2022-08-11T00:58:09;102389.03;;;21.01;100.00
62031;BME280;62035;52.094;5.112;2022-08-11T01:01:06;102393.13;;;20.97;100.00
62031;BME280;62035;52.094;5.112;2022-08-11T01:03:45;102394.50;;;20.93;100.00
62031;BME280;62035;52.094;5.112;2022-08-11T01:06:44;102393.84;;;20.91;100.00
62031;BME280;62035;52.094;5.112;2022-08-11T01:09:27;102392.34;;;20.88;100.00
62031;BME280;62035;52.094;5.112;2022-08-11T01:21:38;102388.97;;;20.86;100.00
62031;BME280;62035;52.094;5.112;2022-08-11T01:24:46;102387.63;;;20.82;100.00
62031;BME280;62035;52.094;5.112;2022-08-11T01:31:10;102389.84;;;20.56;100.00
62031;BME280;62035;52.094;5.112;2022-08-11T01:34:20;102386.28;;;20.55;100.00
62031;BME280;62035;52.094;5.112;2022-08-11T01:37:35;102386.44;;;20.62;100.00
62031;BME280;62035;52.094;5.112;2022-08-11T01:40:32;102382.94;;;20.45;100.00
62031;BME280;62035;52.094;5.112;2022-08-11T01:43:23;102388.75;;;20.34;100.00
62031;BME280;62035;52.094;5.112;2022-08-11T01:46:45;102387.06;;;20.33;100.00
62031;BME280;62035;52.094;5.112;2022-08-11T01:49:20;102381.44;;;20.43;100.00
62031;BME280;62035;52.094;5.112;2022-08-11T01:52:01;102383.69;;;20.31;100.00
62031;BME280;62035;52.094;5.112;2022-08-11T01:54:45;102387.94;;;20.25;100.00
62031;BME280;62035;52.094;5.112;2022-08-11T01:57:23;102381.00;;;20.23;100.00
62031;BME280;62035;52.094;5.112;2022-08-11T02:00:05;102385.06;;;20.27;100.00
62031;BME280;62035;52.094;5.112;2022-08-11T02:02:39;102386.56;;;20.29;100.00
62031;BME280;62035;52.094;5.112;2022-08-11T02:05:21;102380.66;;;20.26;100.00
62031;BME280;62035;52.094;5.112;2022-08-11T02:08:02;102381.22;;;20.13;100.00
62031;BME280;62035;52.094;5.112;2022-08-11T02:10:39;102386.97;;;20.02;100.00
62031;BME280;62035;52.094;5.112;2022-08-11T02:13:32;102390.63;;;20.25;100.00
62031;BME280;62035;52.094;5.112;2022-08-11T02:16:12;102387.47;;;20.06;100.00
62031;BME280;62035;52.094;5.112;2022-08-11T02:18:48;102382.66;;;19.93;100.00
62031;BME280;62035;52.094;5.112;2022-08-11T02:21:38;102382.75;;;19.99;100.00
62031;BME280;62035;52.094;5.112;2022-08-11T02:24:30;102384.44;;;20.09;100.00
62031;BME280;62035;52.094;5.112;2022-08-11T02:27:08;102379.00;;;20.17;100.00
62031;BME280;62035;52.094;5.112;2022-08-11T02:29:43;102379.78;;;19.94;100.00
62031;BME280;62035;52.094;5.112;2022-08-11T02:32:18;102379.25;;;19.99;100.00
62031;BME280;62035;52.094;5.112;2022-08-11T02:35:13;102371.84;;;19.93;100.00
62031;BME280;62035;52.094;5.112;2022-08-11T02:37:49;102376.72;;;19.97;100.00
62031;BME280;62035;52.094;5.112;2022-08-11T02:40:27;102374.50;;;20.01;100.00
62031;BME280;62035;52.094;5.112;2022-08-11T02:43:07;102382.41;;;20.03;100.00
62031;BME280;62035;52.094;5.112;2022-08-11T02:45:44;102373.28;;;20.12;100.00
62031;BME280;62035;52.094;5.112;2022-08-11T02:48:24;102371.53;;;20.27;100.00
62031;BME280;62035;52.094;5.112;2022-08-11T02:51:19;102369.00;;;20.25;100.00
62031;BME280;62035;52.094;5.112;2022-08-11T02:53:57;102361.91;;;20.24;100.00
62031;BME280;62035;52.094;5.112;2022-08-11T02:56:36;102374.47;;;20.09;100.00
62031;BME280;62035;52.094;5.112;2022-08-11T02:59:16;102361.06;;;20.24;100.00
62031;BME280;62035;52.094;5.112;2022-08-11T03:02:13;102370.66;;;19.87;100.00
62031;BME280;62035;52.094;5.112;2022-08-11T03:04:51;102361.47;;;20.05;100.00
62031;BME280;62035;52.094;5.112;2022-08-11T03:07:40;102365.25;;;19.87;100.00
62031;BME280;62035;52.094;5.112;2022-08-11T03:10:19;102365.59;;;19.92;100.00
62031;BME280;62035;52.094;5.112;2022-08-11T03:12:50;102364.91;;;19.90;100.00
62031;BME280;62035;52.094;5.112;2022-08-11T03:15:44;102365.75;;;19.91;100.00
62031;BME280;62035;52.094;5.112;2022-08-11T03:18:33;102364.91;;;19.90;100.00
62031;BME280;62035;52.094;5.112;2022-08-11T03:21:09;102354.81;;;19.84;100.00
62031;BME280;62035;52.094;5.112;2022-08-11T03:23:46;102359.53;;;19.74;100.00
62031;BME280;62035;52.094;5.112;2022-08-11T03:26:21;102360.38;;;19.75;100.00
62031;BME280;62035;52.094;5.112;2022-08-11T03:28:58;102358.88;;;19.72;100.00
62031;BME280;62035;52.094;5.112;2022-08-11T03:31:33;102355.84;;;19.67;100.00
62031;BME280;62035;52.094;5.112;2022-08-11T03:34:03;102354.19;;;19.58;100.00
62031;BME280;62035;52.094;5.112;2022-08-11T03:39:32;102354.31;;;19.73;100.00
62031;BME280;62035;52.094;5.112;2022-08-11T03:42:13;102347.13;;;19.57;100.00
62031;BME280;62035;52.094;5.112;2022-08-11T03:44:48;102357.69;;;19.67;100.00
62031;BME280;62035;52.094;5.112;2022-08-11T03:47:31;102347.06;;;19.73;100.00
62031;BME280;62035;52.094;5.112;2022-08-11T03:50:11;102347.72;;;19.83;100.00
62031;BME280;62035;52.094;5.112;2022-08-11T03:52:52;102355.03;;;19.58;100.00
62031;BME280;62035;52.094;5.112;2022-08-11T03:55:36;102355.50;;;19.78;100.00
62031;BME280;62035;52.094;5.112;2022-08-11T03:58:25;102353.97;;;19.84;100.00
62031;BME280;62035;52.094;5.112;2022-08-11T04:07:19;102364.31;;;19.48;100.00
62031;BME280;62035;52.094;5.112;2022-08-11T04:10:11;102362.28;;;19.50;100.00
62031;BME280;62035;52.094;5.112;2022-08-11T04:16:09;102364.97;;;19.42;100.00
62031;BME280;62035;52.094;5.112;2022-08-11T04:19:04;102360.94;;;19.21;100.00
62031;BME280;62035;52.094;5.112;2022-08-11T04:22:07;102362.97;;;19.27;100.00
62031;BME280;62035;52.094;5.112;2022-08-11T04:31:29;102352.16;;;19.36;100.00
62031;BME280;62035;52.094;5.112;2022-08-11T04:34:11;102355.69;;;19.36;100.00
62031;BME280;62035;52.094;5.112;2022-08-11T04:37:14;102359.75;;;19.32;100.00
62031;BME280;62035;52.094;5.112;2022-08-11T04:43:36;102349.78;;;19.49;100.00
62031;BME280;62035;52.094;5.112;2022-08-11T04:46:47;102356.88;;;19.42;100.00
62031;BME280;62035;52.094;5.112;2022-08-11T04:49:36;102353.50;;;19.31;100.00
62031;BME280;62035;52.094;5.112;2022-08-11T04:52:54;102347.94;;;19.41;100.00
62031;BME280;62035;52.094;5.112;2022-08-11T04:56:01;102350.31;;;19.52;100.00
62031;BME280;62035;52.094;5.112;2022-08-11T05:02:21;102347.56;;;19.69;100.00
62031;BME280;62035;52.094;5.112;2022-08-11T05:05:20;102349.66;;;19.58;100.00
62031;BME280;62035;52.094;5.112;2022-08-11T05:08:12;102354.34;;;19.48;100.00
62031;BME280;62035;52.094;5.112;2022-08-11T05:14:19;102332.91;;;20.49;100.00
62031;BME280;62035;52.094;5.112;2022-08-11T05:17:21;102325.06;;;21.46;100.00
62031;BME280;62035;52.094;5.112;2022-08-11T05:20:10;102313.47;;;22.11;100.00
62031;BME280;62035;52.094;5.112;2022-08-11T05:22:57;102313.13;;;22.71;100.00
62031;BME280;62035;52.094;5.112;2022-08-11T05:25:48;102316.63;;;23.08;100.00
62031;BME280;62035;52.094;5.112;2022-08-11T05:28:40;102319.44;;;23.49;100.00
62031;BME280;62035;52.094;5.112;2022-08-11T05:31:31;102315.44;;;23.45;100.00
62031;BME280;62035;52.094;5.112;2022-08-11T05:34:19;102327.56;;;22.57;100.00
62031;BME280;62035;52.094;5.112;2022-08-11T05:37:07;102331.06;;;21.85;100.00
62031;BME280;62035;52.094;5.112;2022-08-11T05:39:40;102330.94;;;21.64;100.00
62031;BME280;62035;52.094;5.112;2022-08-11T05:42:32;102331.69;;;21.20;100.00
62031;BME280;62035;52.094;5.112;2022-08-11T05:45:23;102337.84;;;20.91;100.00
62031;BME280;62035;52.094;5.112;2022-08-11T05:48:09;102345.78;;;20.93;100.00
62031;BME280;62035;52.094;5.112;2022-08-11T05:50:54;102330.53;;;21.00;100.00
62031;BME280;62035;52.094;5.112;2022-08-11T05:53:48;102345.94;;;20.77;100.00
62031;BME280;62035;52.094;5.112;2022-08-11T05:56:41;102344.72;;;20.79;100.00
62031;BME280;62035;52.094;5.112;2022-08-11T05:59:15;102348.69;;;21.14;100.00
62031;BME280;62035;52.094;5.112;2022-08-11T06:01:44;102334.13;;;22.12;100.00
62031;BME280;62035;52.094;5.112;2022-08-11T06:04:17;102330.91;;;23.16;100.00
62031;BME280;62035;52.094;5.112;2022-08-11T06:06:50;102325.28;;;23.80;100.00
62031;BME280;62035;52.094;5.112;2022-08-11T06:09:21;102333.34;;;23.95;100.00
62031;BME280;62035;52.094;5.112;2022-08-11T06:11:50;102332.34;;;24.64;100.00
62031;BME280;62035;52.094;5.112;2022-08-11T06:14:19;102331.75;;;24.88;100.00
62031;BME280;62035;52.094;5.112;2022-08-11T06:16:49;102313.50;;;24.82;100.00
62031;BME280;62035;52.094;5.112;2022-08-11T06:19:21;102332.56;;;24.82;100.00
62031;BME280;62035;52.094;5.112;2022-08-11T06:21:58;102338.50;;;25.12;100.00
62031;BME280;62035;52.094;5.112;2022-08-11T06:24:28;102338.91;;;25.02;100.00
62031;BME280;62035;52.094;5.112;2022-08-11T06:26:57;102339.34;;;25.12;100.00
62031;BME280;62035;52.094;5.112;2022-08-11T06:29:27;102342.41;;;24.83;100.00
62031;BME280;62035;52.094;5.112;2022-08-11T06:31:57;102327.41;;;25.00;100.00
62031;BME280;62035;52.094;5.112;2022-08-11T06:34:34;102335.38;;;25.08;100.00
62031;BME280;62035;52.094;5.112;2022-08-11T06:40:02;102327.56;;;24.79;100.00
62031;BME280;62035;52.094;5.112;2022-08-11T06:42:34;102337.25;;;25.14;100.00
62031;BME280;62035;52.094;5.112;2022-08-11T06:45:15;102330.06;;;24.80;100.00
62031;BME280;62035;52.094;5.112;2022-08-11T06:47:50;102338.03;;;24.95;100.00
62031;BME280;62035;52.094;5.112;2022-08-11T06:50:19;102333.91;;;25.12;100.00
62031;BME280;62035;52.094;5.112;2022-08-11T06:53:06;102325.50;;;25.01;100.00
62031;BME280;62035;52.094;5.112;2022-08-11T06:55:38;102324.25;;;25.23;100.00
62031;BME280;62035;52.094;5.112;2022-08-11T06:58:25;102318.81;;;25.03;100.00
62031;BME280;62035;52.094;5.112;2022-08-11T07:01:15;102327.97;;;24.89;100.00
62031;BME280;62035;52.094;5.112;2022-08-11T07:03:53;102328.66;;;25.17;100.00
62031;BME280;62035;52.094;5.112;2022-08-11T07:06:30;102325.03;;;24.90;100.00
62031;BME280;62035;52.094;5.112;2022-08-11T07:09:19;102322.53;;;24.89;100.00
62031;BME280;62035;52.094;5.112;2022-08-11T07:12:40;102324.63;;;24.87;100.00
62031;BME280;62035;52.094;5.112;2022-08-11T07:15:30;102328.59;;;24.84;100.00
62031;BME280;62035;52.094;5.112;2022-08-11T07:18:11;102334.50;;;25.27;100.00
62031;BME280;62035;52.094;5.112;2022-08-11T07:21:08;102327.16;;;25.48;100.00
62031;BME280;62035;52.094;5.112;2022-08-11T07:23:55;102326.50;;;25.66;98.12
62031;BME280;62035;52.094;5.112;2022-08-11T07:26:44;102333.19;;;25.63;94.98
62031;BME280;62035;52.094;5.112;2022-08-11T07:29:34;102330.91;;;25.73;92.80
62031;BME280;62035;52.094;5.112;2022-08-11T07:32:08;102322.88;;;25.98;91.74
62031;BME280;62035;52.094;5.112;2022-08-11T07:34:45;102323.09;;;25.97;92.10
62031;BME280;62035;52.094;5.112;2022-08-11T07:37:18;102322.91;;;25.91;91.13
62031;BME280;62035;52.094;5.112;2022-08-11T07:39:48;102323.22;;;26.08;91.48
62031;BME280;62035;52.094;5.112;2022-08-11T07:42:20;102318.59;;;26.15;90.32
62031;BME280;62035;52.094;5.112;2022-08-11T07:44:49;102324.84;;;26.36;86.52
62031;BME280;62035;52.094;5.112;2022-08-11T07:47:37;102325.50;;;26.63;83.80
62031;BME280;62035;52.094;5.112;2022-08-11T07:50:24;102326.97;;;26.65;82.35
62031;BME280;62035;52.094;5.112;2022-08-11T07:53:10;102322.34;;;26.90;80.10
62031;BME280;62035;52.094;5.112;2022-08-11T07:55:40;102318.56;;;26.91;81.29
62031;BME280;62035;52.094;5.112;2022-08-11T07:58:09;102325.16;;;27.15;77.82
62031;BME280;62035;52.094;5.112;2022-08-11T08:00:55;102319.56;;;27.04;77.38
62031;BME280;62035;52.094;5.112;2022-08-11T08:03:41;102331.59;;;27.21;76.81
62031;BME280;62035;52.094;5.112;2022-08-11T08:06:29;102326.84;;;27.35;76.93
62031;BME280;62035;52.094;5.112;2022-08-11T08:09:17;102327.84;;;27.40;73.98
62031;BME280;62035;52.094;5.112;2022-08-11T08:12:03;102330.88;;;27.75;76.41
62031;BME280;62035;52.094;5.112;2022-08-11T08:14:51;102328.69;;;27.84;73.92
62031;BME280;62035;52.094;5.112;2022-08-11T08:17:39;102336.81;;;27.72;72.12
62031;BME280;62035;52.094;5.112;2022-08-11T08:20:19;102327.06;;;27.76;70.02
62031;BME280;62035;52.094;5.112;2022-08-11T08:22:51;102330.56;;;27.83;71.11
62031;BME280;62035;52.094;5.112;2022-08-11T08:25:21;102329.22;;;27.93;68.77
62031;BME280;62035;52.094;5.112;2022-08-11T08:27:50;102330.88;;;27.94;69.38
62031;BME280;62035;52.094;5.112;2022-08-11T08:30:19;102325.91;;;28.02;67.40
62031;BME280;62035;52.094;5.112;2022-08-11T08:33:04;102327.81;;;28.20;67.17
62031;BME280;62035;52.094;5.112;2022-08-11T08:35:32;102320.22;;;28.22;69.48
62031;BME280;62035;52.094;5.112;2022-08-11T08:38:03;102331.94;;;28.29;69.20
62031;BME280;62035;52.094;5.112;2022-08-11T08:40:31;102328.69;;;28.50;68.23
62031;BME280;62035;52.094;5.112;2022-08-11T08:43:01;102313.22;;;28.56;67.47
62031;BME280;62035;52.094;5.112;2022-08-11T08:45:33;102314.22;;;28.73;66.34
62031;BME280;62035;52.094;5.112;2022-08-11T08:48:03;102313.03;;;28.81;64.24
62031;BME280;62035;52.094;5.112;2022-08-11T08:50:35;102313.84;;;29.11;62.53
62031;BME280;62035;52.094;5.112;2022-08-11T08:53:29;102316.69;;;29.05;61.01
62031;BME280;62035;52.094;5.112;2022-08-11T08:56:00;102312.03;;;29.29;59.54
62031;BME280;62035;52.094;5.112;2022-08-11T08:58:28;102307.03;;;29.37;57.30
62031;BME280;62035;52.094;5.112;2022-08-11T09:00:57;102306.47;;;29.47;54.41
62031;BME280;62035;52.094;5.112;2022-08-11T09:03:26;102326.94;;;29.33;55.98
62031;BME280;62035;52.094;5.112;2022-08-11T09:05:54;102315.50;;;29.36;55.86
62031;BME280;62035;52.094;5.112;2022-08-11T09:08:23;102308.94;;;29.60;52.50
62031;BME280;62035;52.094;5.112;2022-08-11T09:10:54;102306.72;;;29.57;52.68
62031;BME280;62035;52.094;5.112;2022-08-11T09:13:36;102313.94;;;29.75;52.57
62031;BME280;62035;52.094;5.112;2022-08-11T09:16:06;102310.13;;;29.76;50.01
62031;BME280;62035;52.094;5.112;2022-08-11T09:18:36;102307.72;;;29.79;49.77
62031;BME280;62035;52.094;5.112;2022-08-11T09:21:03;102300.78;;;30.00;50.97
62031;BME280;62035;52.094;5.112;2022-08-11T09:23:32;102298.84;;;30.01;50.92
62031;BME280;62035;52.094;5.112;2022-08-11T09:26:18;102300.41;;;30.37;51.17
62031;BME280;62035;52.094;5.112;2022-08-11T09:29:05;102291.75;;;30.45;50.83
62031;BME280;62035;52.094;5.112;2022-08-11T09:31:35;102289.09;;;30.33;48.81
62031;BME280;62035;52.094;5.112;2022-08-11T09:34:03;102279.03;;;30.56;48.19
62031;BME280;62035;52.094;5.112;2022-08-11T09:36:32;102287.78;;;30.52;47.77
62031;BME280;62035;52.094;5.112;2022-08-11T09:39:17;102287.56;;;30.42;47.12
62031;BME280;62035;52.094;5.112;2022-08-11T09:42:04;102279.25;;;30.66;46.80
62031;BME280;62035;52.094;5.112;2022-08-11T09:44:32;102277.50;;;30.76;44.19
62031;BME280;62035;52.094;5.112;2022-08-11T09:47:16;102285.66;;;30.88;41.76
62031;BME280;62035;52.094;5.112;2022-08-11T09:49:47;102279.84;;;31.01;40.55
62031;BME280;62035;52.094;5.112;2022-08-11T09:52:17;102274.00;;;30.98;41.34
62031;BME280;62035;52.094;5.112;2022-08-11T09:54:47;102271.31;;;30.86;38.93
62031;BME280;62035;52.094;5.112;2022-08-11T09:57:21;102277.47;;;31.27;39.49
62031;BME280;62035;52.094;5.112;2022-08-11T10:00:06;102279.22;;;31.33;39.03
62031;BME280;62035;52.094;5.112;2022-08-11T10:02:37;102282.19;;;31.48;39.06
62031;BME280;62035;52.094;5.112;2022-08-11T10:05:16;102276.38;;;31.66;38.60
62031;BME280;62035;52.094;5.112;2022-08-11T10:08:03;102278.97;;;31.73;38.13
62031;BME280;62035;52.094;5.112;2022-08-11T10:10:33;102280.44;;;31.80;38.75
62031;BME280;62035;52.094;5.112;2022-08-11T10:13:06;102279.47;;;31.70;37.33
62031;BME280;62035;52.094;5.112;2022-08-11T10:15:35;102270.59;;;31.85;37.26
62031;BME280;62035;52.094;5.112;2022-08-11T10:18:05;102269.66;;;32.01;37.50
62031;BME280;62035;52.094;5.112;2022-08-11T10:20:52;102272.00;;;31.87;37.44
62031;BME280;62035;52.094;5.112;2022-08-11T10:23:29;102260.03;;;32.03;34.93
62031;BME280;62035;52.094;5.112;2022-08-11T10:26:17;102258.69;;;32.06;34.19
62031;BME280;62035;52.094;5.112;2022-08-11T10:29:04;102251.50;;;31.78;35.06
62031;BME280;62035;52.094;5.112;2022-08-11T10:31:53;102256.78;;;32.28;34.45
62031;BME280;62035;52.094;5.112;2022-08-11T10:34:40;102244.28;;;32.47;33.44
62031;BME280;62035;52.094;5.112;2022-08-11T10:37:10;102255.16;;;32.32;33.69
62031;BME280;62035;52.094;5.112;2022-08-11T10:39:38;102256.63;;;32.18;34.32
62031;BME280;62035;52.094;5.112;2022-08-11T10:42:06;102260.47;;;32.39;34.14
62031;BME280;62035;52.094;5.112;2022-08-11T10:44:53;102247.22;;;32.36;34.27
62031;BME280;62035;52.094;5.112;2022-08-11T10:47:22;102243.78;;;32.56;33.44
62031;BME280;62035;52.094;5.112;2022-08-11T10:49:59;102242.09;;;32.49;34.05
62031;BME280;62035;52.094;5.112;2022-08-11T10:52:46;102246.06;;;32.64;33.63
62031;BME280;62035;52.094;5.112;2022-08-11T10:55:33;102239.88;;;32.78;33.87
62031;BME280;62035;52.094;5.112;2022-08-11T10:58:20;102240.28;;;32.65;33.28
62031;BME280;62035;52.094;5.112;2022-08-11T11:01:07;102233.34;;;32.58;33.08
62031;BME280;62035;52.094;5.112;2022-08-11T11:03:36;102240.28;;;32.65;34.49
62031;BME280;62035;52.094;5.112;2022-08-11T11:06:07;102239.53;;;33.07;34.40
62031;BME280;62035;52.094;5.112;2022-08-11T11:08:43;102233.13;;;33.01;34.93
62031;BME280;62035;52.094;5.112;2022-08-11T11:11:20;102239.03;;;33.15;34.26
62031;BME280;62035;52.094;5.112;2022-08-11T11:14:08;102230.63;;;33.42;34.35
62031;BME280;62035;52.094;5.112;2022-08-11T11:16:57;102213.69;;;33.81;33.90
62031;BME280;62035;52.094;5.112;2022-08-11T11:19:43;102225.50;;;33.71;33.48
62031;BME280;62035;52.094;5.112;2022-08-11T11:22:12;102226.06;;;33.73;33.52
62031;BME280;62035;52.094;5.112;2022-08-11T11:25:02;102229.28;;;33.50;33.64
62031;BME280;62035;52.094;5.112;2022-08-11T11:27:35;102226.56;;;33.55;33.04
62031;BME280;62035;52.094;5.112;2022-08-11T11:30:14;102225.16;;;33.52;33.33
62031;BME280;62035;52.094;5.112;2022-08-11T11:32:47;102213.59;;;33.65;33.10
62031;BME280;62035;52.094;5.112;2022-08-11T11:35:35;102207.03;;;33.76;33.33
62031;BME280;62035;52.094;5.112;2022-08-11T11:38:09;102205.47;;;34.26;32.51
62031;BME280;62035;52.094;5.112;2022-08-11T11:40:38;102215.44;;;34.27;32.70
62031;BME280;62035;52.094;5.112;2022-08-11T11:43:06;102205.22;;;34.43;31.33
62031;BME280;62035;52.094;5.112;2022-08-11T11:45:34;102208.00;;;34.33;31.38
62031;BME280;62035;52.094;5.112;2022-08-11T11:48:03;102204.94;;;34.75;30.50
62031;BME280;62035;52.094;5.112;2022-08-11T11:50:32;102204.91;;;35.05;30.27
62031;BME280;62035;52.094;5.112;2022-08-11T11:53:02;102203.81;;;34.96;30.23
62031;BME280;62035;52.094;5.112;2022-08-11T11:55:31;102197.38;;;35.31;29.78
62031;BME280;62035;52.094;5.112;2022-08-11T11:57:59;102200.38;;;35.40;30.27
62031;BME280;62035;52.094;5.112;2022-08-11T12:00:45;102200.47;;;35.79;28.53
62031;BME280;62035;52.094;5.112;2022-08-11T12:03:33;102202.41;;;35.84;29.06
62031;BME280;62035;52.094;5.112;2022-08-11T12:06:02;102185.47;;;35.90;28.03
62031;BME280;62035;52.094;5.112;2022-08-11T12:08:30;102194.44;;;36.11;27.91
62031;BME280;62035;52.094;5.112;2022-08-11T12:10:59;102176.22;;;36.00;27.65
62031;BME280;62035;52.094;5.112;2022-08-11T12:13:48;102185.22;;;36.21;28.18
62031;BME280;62035;52.094;5.112;2022-08-11T12:16:18;102182.81;;;35.60;28.14
62031;BME280;62035;52.094;5.112;2022-08-11T12:18:48;102168.22;;;36.37;27.70
62031;BME280;62035;52.094;5.112;2022-08-11T12:21:18;102160.47;;;36.63;26.80
62031;BME280;62035;52.094;5.112;2022-08-11T12:23:46;102165.84;;;36.50;26.96
62031;BME280;62035;52.094;5.112;2022-08-11T12:26:28;102156.94;;;36.24;27.43
62031;BME280;62035;52.094;5.112;2022-08-11T12:29:15;102161.28;;;36.93;27.10
62031;BME280;62035;52.094;5.112;2022-08-11T12:31:45;102158.75;;;36.96;26.82
62031;BME280;62035;52.094;5.112;2022-08-11T12:34:14;102157.88;;;36.77;26.48
62031;BME280;62035;52.094;5.112;2022-08-11T12:36:45;102156.31;;;37.14;25.78
62031;BME280;62035;52.094;5.112;2022-08-11T12:39:18;102146.84;;;37.38;25.61
62031;BME280;62035;52.094;5.112;2022-08-11T12:42:07;102144.34;;;37.80;25.72
62031;BME280;62035;52.094;5.112;2022-08-11T12:44:53;102138.31;;;37.72;25.18
62031;BME280;62035;52.094;5.112;2022-08-11T12:47:41;102142.44;;;37.94;25.58
62031;BME280;62035;52.094;5.112;2022-08-11T12:50:32;102127.13;;;37.78;25.19
62031;BME280;62035;52.094;5.112;2022-08-11T12:53:18;102127.06;;;38.48;24.66
62031;BME280;62035;52.094;5.112;2022-08-11T12:55:50;102132.28;;;38.68;24.16
62031;BME280;62035;52.094;5.112;2022-08-11T12:58:39;102134.16;;;37.09;25.13
62031;BME280;62035;52.094;5.112;2022-08-11T13:01:07;102139.19;;;37.30;25.04
62031;BME280;62035;52.094;5.112;2022-08-11T13:03:53;102136.03;;;36.65;26.34
62031;BME280;62035;52.094;5.112;2022-08-11T13:06:40;102120.66;;;37.82;25.01
62031;BME280;62035;52.094;5.112;2022-08-11T13:09:08;102132.56;;;38.20;24.88
62031;BME280;62035;52.094;5.112;2022-08-11T13:11:38;102131.53;;;38.90;24.06
62031;BME280;62035;52.094;5.112;2022-08-11T13:14:24;102122.16;;;39.27;23.79
62031;BME280;62035;52.094;5.112;2022-08-11T13:16:52;102118.94;;;39.20;23.25
62031;BME280;62035;52.094;5.112;2022-08-11T13:19:39;102121.28;;;38.12;24.40
62031;BME280;62035;52.094;5.112;2022-08-11T13:22:09;102113.31;;;38.70;24.02
62031;BME280;62035;52.094;5.112;2022-08-11T13:24:37;102104.34;;;38.59;23.88
62031;BME280;62035;52.094;5.112;2022-08-11T13:27:06;102102.38;;;38.60;24.05
62031;BME280;62035;52.094;5.112;2022-08-11T13:29:33;102093.56;;;38.39;24.29
62031;BME280;62035;52.094;5.112;2022-08-11T13:32:02;102092.72;;;37.92;24.75
62031;BME280;62035;52.094;5.112;2022-08-11T13:34:30;102095.53;;;38.39;24.28
62031;BME280;62035;52.094;5.112;2022-08-11T13:36:58;102093.88;;;38.05;24.66
62031;BME280;62035;52.094;5.112;2022-08-11T13:39:30;102098.03;;;38.81;24.39
62031;BME280;62035;52.094;5.112;2022-08-11T13:41:59;102105.78;;;38.71;23.64
62031;BME280;62035;52.094;5.112;2022-08-11T13:44:28;102102.59;;;38.77;23.90
62031;BME280;62035;52.094;5.112;2022-08-11T13:46:57;102090.50;;;38.82;23.59
62031;BME280;62035;52.094;5.112;2022-08-11T13:49:27;102088.06;;;39.57;23.52
62031;BME280;62035;52.094;5.112;2022-08-11T13:51:57;102089.44;;;39.68;23.10
62031;BME280;62035;52.094;5.112;2022-08-11T13:54:25;102083.00;;;39.10;23.30
62031;BME280;62035;52.094;5.112;2022-08-11T13:57:00;102078.47;;;39.50;23.01
62031;BME280;62035;52.094;5.112;2022-08-11T13:59:31;102084.13;;;39.58;23.20
62031;BME280;62035;52.094;5.112;2022-08-11T14:02:00;102077.09;;;39.83;21.89
62031;BME280;62035;52.094;5.112;2022-08-11T14:04:29;102071.91;;;39.32;22.54
62031;BME280;62035;52.094;5.112;2022-08-11T14:07:02;102076.59;;;39.81;21.80
62031;BME280;62035;52.094;5.112;2022-08-11T14:09:34;102070.41;;;40.38;21.35
62031;BME280;62035;52.094;5.112;2022-08-11T14:12:06;102065.25;;;40.62;20.97
62031;BME280;62035;52.094;5.112;2022-08-11T14:14:57;102048.88;;;38.35;23.04
62031;BME280;62035;52.094;5.112;2022-08-11T14:17:27;102059.75;;;38.18;23.17
62031;BME280;62035;52.094;5.112;2022-08-11T14:19:57;102064.78;;;37.65;23.54
62031;BME280;62035;52.094;5.112;2022-08-11T14:22:29;102057.94;;;38.09;23.05
62031;BME280;62035;52.094;5.112;2022-08-11T14:24:57;102056.41;;;37.51;23.27
62031;BME280;62035;52.094;5.112;2022-08-11T14:27:26;102056.47;;;38.44;23.00
62031;BME280;62035;52.094;5.112;2022-08-11T14:29:56;102055.78;;;38.79;22.71
62031;BME280;62035;52.094;5.112;2022-08-11T14:32:24;102057.16;;;39.31;22.18